sensor_id;sensor_type;location;lat;lon;timestamp;pressure;altitude;pressure_sealevel;temperature;humidity
43430;BME280;29028;43.234;27.896;2022-08-19T04:02:12;99622.06;;;24.20;78.39
43430;BME280;29028;43.234;27.896;2022-08-19T04:02:34;99618.75;;;24.23;78.69
43430;BME280;29028;43.234;27.896;2022-08-19T04:02:55;99617.88;;;24.28;78.42
43430;BME280;29028;43.234;27.896;2022-08-19T04:03:16;99623.66;;;24.26;78.48
43430;BME280;29028;43.234;27.896;2022-08-19T04:03:39;99610.03;;;24.16;77.95
43430;BME280;29028;43.234;27.896;2022-08-19T04:04:01;99618.56;;;24.15;78.21
43430;BME280;29028;43.234;27.896;2022-08-19T04:04:23;99622.38;;;24.19;78.22
43430;BME280;29028;43.234;27.896;2022-08-19T04:04:44;99611.06;;;24.20;78.04
43430;BME280;29028;43.234;27.896;2022-08-19T04:05:06;99614.38;;;24.22;78.00
43430;BME280;29028;43.234;27.896;2022-08-19T04:05:28;99612.06;;;24.29;77.99
43430;BME280;29028;43.234;27.896;2022-08-19T04:05:50;99616.13;;;24.37;78.20
43430;BME280;29028;43.234;27.896;2022-08-19T04:06:12;99616.34;;;24.40;77.45
43430;BME280;29028;43.234;27.896;2022-08-19T04:06:34;99595.38;;;24.21;77.07
43430;BME280;29028;43.234;27.896;2022-08-19T04:06:56;99609.72;;;24.18;77.85
43430;BME280;29028;43.234;27.896;2022-08-19T04:07:18;99613.81;;;24.20;77.84
43430;BME280;29028;43.234;27.896;2022-08-19T04:07:41;99613.72;;;24.30;78.27
43430;BME280;29028;43.234;27.896;2022-08-19T04:08:03;99624.16;;;24.33;78.02
43430;BME280;29028;43.234;27.896;2022-08-19T04:08:24;99603.81;;;24.29;77.93
43430;BME280;29028;43.234;27.896;2022-08-19T04:08:45;99606.50;;;24.34;78.14
43430;BME280;29028;43.234;27.896;2022-08-19T04:09:09;99614.25;;;24.32;77.87
43430;BME280;29028;43.234;27.896;2022-08-19T04:09:30;99614.66;;;24.21;77.79
43430;BME280;29028;43.234;27.896;2022-08-19T04:09:51;99612.66;;;24.26;77.86
43430;BME280;29028;43.234;27.896;2022-08-19T04:10:12;99619.16;;;24.35;78.03
43430;BME280;29028;43.234;27.896;2022-08-19T04:10:36;99615.06;;;24.33;77.72
43430;BME280;29028;43.234;27.896;2022-08-19T04:10:57;99615.28;;;24.36;77.81
43430;BME280;29028;43.234;27.896;2022-08-19T04:11:20;99609.56;;;24.33;77.84
43430;BME280;29028;43.234;27.896;2022-08-19T04:11:44;99611.25;;;24.29;77.77
43430;BME280;29028;43.234;27.896;2022-08-19T04:12:05;99612.97;;;24.25;77.49
43430;BME280;29028;43.234;27.896;2022-08-19T04:12:28;99609.38;;;24.24;77.77
43430;BME280;29028;43.234;27.896;2022-08-19T04:12:49;99617.16;;;24.17;78.17
43430;BME280;29028;43.234;27.896;2022-08-19T04:13:10;99619.88;;;24.22;77.91
43430;BME280;29028;43.234;27.896;2022-08-19T04:13:30;99622.84;;;24.26;77.91
43430;BME280;29028;43.234;27.896;2022-08-19T04:13:54;99620.16;;;24.21;77.81
43430;BME280;29028;43.234;27.896;2022-08-19T04:14:17;99612.47;;;24.18;77.96
43430;BME280;29028;43.234;27.896;2022-08-19T04:14:39;99616.56;;;24.20;78.26
43430;BME280;29028;43.234;27.896;2022-08-19T04:15:00;99620.44;;;24.19;78.54
43430;BME280;29028;43.234;27.896;2022-08-19T04:15:22;99621.78;;;24.22;78.28
43430;BME280;29028;43.234;27.896;2022-08-19T04:15:44;99612.41;;;24.23;78.11
43430;BME280;29028;43.234;27.896;2022-08-19T04:16:07;99621.16;;;24.30;78.43
43430;BME280;29028;43.234;27.896;2022-08-19T04:16:29;99616.75;;;24.29;78.16
43430;BME280;29028;43.234;27.896;2022-08-19T04:16:51;99616.94;;;24.37;78.24
43430;BME280;29028;43.234;27.896;2022-08-19T04:17:14;99619.09;;;24.40;77.88
43430;BME280;29028;43.234;27.896;2022-08-19T04:17:35;99616.94;;;24.37;77.35
43430;BME280;29028;43.234;27.896;2022-08-19T04:17:57;99619.38;;;24.39;77.67
43430;BME280;29028;43.234;27.896;2022-08-19T04:18:17;99621.28;;;24.43;77.48
43430;BME280;29028;43.234;27.896;2022-08-19T04:18:40;99630.09;;;24.40;77.27
43430;BME280;29028;43.234;27.896;2022-08-19T04:19:03;99620.91;;;24.50;77.47
43430;BME280;29028;43.234;27.896;2022-08-19T04:19:25;99623.41;;;24.46;77.08
43430;BME280;29028;43.234;27.896;2022-08-19T04:19:47;99622.47;;;24.56;76.83
43430;BME280;29028;43.234;27.896;2022-08-19T04:20:08;99618.22;;;24.45;76.81
43430;BME280;29028;43.234;27.896;2022-08-19T04:20:30;99629.69;;;24.52;77.31
43430;BME280;29028;43.234;27.896;2022-08-19T04:20:51;99626.19;;;24.46;76.89
43430;BME280;29028;43.234;27.896;2022-08-19T04:21:16;99618.09;;;24.31;77.20
43430;BME280;29028;43.234;27.896;2022-08-19T04:21:37;99621.50;;;24.23;77.46
43430;BME280;29028;43.234;27.896;2022-08-19T04:21:58;99619.38;;;24.15;78.06
43430;BME280;29028;43.234;27.896;2022-08-19T04:22:19;99628.59;;;24.29;78.51
43430;BME280;29028;43.234;27.896;2022-08-19T04:22:41;99629.66;;;24.33;78.13
43430;BME280;29028;43.234;27.896;2022-08-19T04:23:02;99623.31;;;24.33;77.98
43430;BME280;29028;43.234;27.896;2022-08-19T04:23:22;99629.00;;;24.41;77.99
43430;BME280;29028;43.234;27.896;2022-08-19T04:23:43;99624.81;;;24.44;77.86
43430;BME280;29028;43.234;27.896;2022-08-19T04:24:04;99627.06;;;24.42;77.67
43430;BME280;29028;43.234;27.896;2022-08-19T04:24:25;99623.25;;;24.38;77.74
43430;BME280;29028;43.234;27.896;2022-08-19T04:24:47;99624.16;;;24.33;77.79
43430;BME280;29028;43.234;27.896;2022-08-19T04:25:09;99619.81;;;24.27;77.68
43430;BME280;29028;43.234;27.896;2022-08-19T04:25:35;99627.97;;;24.37;77.79
43430;BME280;29028;43.234;27.896;2022-08-19T04:25:56;99623.25;;;24.38;78.08
43430;BME280;29028;43.234;27.896;2022-08-19T04:26:21;99625.44;;;24.41;77.81
43430;BME280;29028;43.234;27.896;2022-08-19T04:26:43;99625.94;;;24.43;78.02
43430;BME280;29028;43.234;27.896;2022-08-19T04:27:04;99624.59;;;24.40;77.41
43430;BME280;29028;43.234;27.896;2022-08-19T04:27:26;99621.34;;;24.38;77.80
43430;BME280;29028;43.234;27.896;2022-08-19T04:27:48;99622.97;;;24.39;78.01
43430;BME280;29028;43.234;27.896;2022-08-19T04:28:11;99627.06;;;24.42;77.74
43430;BME280;29028;43.234;27.896;2022-08-19T04:28:32;99630.34;;;24.44;77.88
43430;BME280;29028;43.234;27.896;2022-08-19T04:28:57;99622.63;;;24.46;77.54
43430;BME280;29028;43.234;27.896;2022-08-19T04:29:19;99621.63;;;24.37;77.45
43430;BME280;29028;43.234;27.896;2022-08-19T04:29:42;99628.19;;;24.41;77.69
43430;BME280;29028;43.234;27.896;2022-08-19T04:30:04;99629.28;;;24.40;77.89
43430;BME280;29028;43.234;27.896;2022-08-19T04:30:25;99623.13;;;24.48;78.34
43430;BME280;29028;43.234;27.896;2022-08-19T04:30:48;99628.34;;;24.49;77.48
43430;BME280;29028;43.234;27.896;2022-08-19T04:31:13;99625.38;;;24.46;77.47
43430;BME280;29028;43.234;27.896;2022-08-19T04:31:35;99625.94;;;24.43;77.62
43430;BME280;29028;43.234;27.896;2022-08-19T04:31:57;99632.47;;;24.52;77.88
43430;BME280;29028;43.234;27.896;2022-08-19T04:32:20;99636.53;;;24.59;77.38
43430;BME280;29028;43.234;27.896;2022-08-19T04:32:43;99633.19;;;24.57;77.13
43430;BME280;29028;43.234;27.896;2022-08-19T04:33:04;99629.47;;;24.48;77.03
43430;BME280;29028;43.234;27.896;2022-08-19T04:33:25;99628.34;;;24.49;77.09
43430;BME280;29028;43.234;27.896;2022-08-19T04:33:46;99630.28;;;24.49;77.24
43430;BME280;29028;43.234;27.896;2022-08-19T04:34:09;99631.69;;;24.46;77.38
43430;BME280;29028;43.234;27.896;2022-08-19T04:34:31;99630.78;;;24.51;77.36
43430;BME280;29028;43.234;27.896;2022-08-19T04:34:52;99631.56;;;24.56;77.18
43430;BME280;29028;43.234;27.896;2022-08-19T04:35:13;99637.72;;;24.48;77.28
43430;BME280;29028;43.234;27.896;2022-08-19T04:35:36;99635.50;;;24.50;77.19
43430;BME280;29028;43.234;27.896;2022-08-19T04:35:59;99631.91;;;24.50;76.92
43430;BME280;29028;43.234;27.896;2022-08-19T04:36:22;99641.19;;;24.59;76.94
43430;BME280;29028;43.234;27.896;2022-08-19T04:36:45;99642.03;;;24.59;76.86
43430;BME280;29028;43.234;27.896;2022-08-19T04:37:06;99643.13;;;24.58;76.90
43430;BME280;29028;43.234;27.896;2022-08-19T04:37:32;99635.69;;;24.59;76.65
43430;BME280;29028;43.234;27.896;2022-08-19T04:37:53;99643.41;;;24.57;76.70
43430;BME280;29028;43.234;27.896;2022-08-19T04:38:16;99640.66;;;24.57;77.07
43430;BME280;29028;43.234;27.896;2022-08-19T04:38:37;99640.38;;;24.58;76.75
43430;BME280;29028;43.234;27.896;2022-08-19T04:39:01;99637.31;;;24.60;76.85
43430;BME280;29028;43.234;27.896;2022-08-19T04:39:26;99638.91;;;24.66;76.71
43430;BME280;29028;43.234;27.896;2022-08-19T04:40:08;99649.28;;;24.74;76.59
43430;BME280;29028;43.234;27.896;2022-08-19T04:40:51;99639.06;;;24.74;76.08
43430;BME280;29028;43.234;27.896;2022-08-19T04:41:30;99640.19;;;24.73;76.21
43430;BME280;29028;43.234;27.896;2022-08-19T04:42:09;99641.88;;;24.69;75.92
43430;BME280;29028;43.234;27.896;2022-08-19T04:42:49;99644.78;;;24.78;76.90
43430;BME280;29028;43.234;27.896;2022-08-19T04:43:10;99637.94;;;24.75;76.63
43430;BME280;29028;43.234;27.896;2022-08-19T04:43:33;99639.22;;;24.83;76.83
43430;BME280;29028;43.234;27.896;2022-08-19T04:43:54;99643.94;;;24.82;76.37
43430;BME280;29028;43.234;27.896;2022-08-19T04:44:15;99640.63;;;24.80;76.68
43430;BME280;29028;43.234;27.896;2022-08-19T04:44:38;99642.88;;;24.78;76.91
43430;BME280;29028;43.234;27.896;2022-08-19T04:45:00;99643.44;;;24.75;76.52
43430;BME280;29028;43.234;27.896;2022-08-19T04:45:21;99640.94;;;24.79;77.26
43430;BME280;29028;43.234;27.896;2022-08-19T04:45:42;99641.47;;;24.81;76.81
43430;BME280;29028;43.234;27.896;2022-08-19T04:46:05;99646.63;;;24.87;77.66
43430;BME280;29028;43.234;27.896;2022-08-19T04:46:27;99635.88;;;24.86;76.57
43430;BME280;29028;43.234;27.896;2022-08-19T04:46:50;99640.78;;;24.89;76.50
43430;BME280;29028;43.234;27.896;2022-08-19T04:47:11;99641.56;;;24.94;76.24
43430;BME280;29028;43.234;27.896;2022-08-19T04:47:33;99644.59;;;24.93;76.91
43430;BME280;29028;43.234;27.896;2022-08-19T04:47:55;99632.72;;;24.97;76.76
43430;BME280;29028;43.234;27.896;2022-08-19T04:48:17;99642.59;;;24.98;76.35
43430;BME280;29028;43.234;27.896;2022-08-19T04:48:46;99645.63;;;24.78;75.65
43430;BME280;29028;43.234;27.896;2022-08-19T04:49:07;99640.13;;;24.78;75.65
43430;BME280;29028;43.234;27.896;2022-08-19T04:49:28;99648.25;;;24.88;75.98
43430;BME280;29028;43.234;27.896;2022-08-19T04:49:51;99638.88;;;24.89;76.43
43430;BME280;29028;43.234;27.896;2022-08-19T04:50:12;99645.22;;;24.90;76.01
43430;BME280;29028;43.234;27.896;2022-08-19T04:50:32;99640.88;;;25.02;76.26
43430;BME280;29028;43.234;27.896;2022-08-19T04:50:55;99643.19;;;24.95;75.45
43430;BME280;29028;43.234;27.896;2022-08-19T04:51:18;99646.78;;;24.96;76.06
43430;BME280;29028;43.234;27.896;2022-08-19T04:51:41;99640.00;;;24.88;75.44
43430;BME280;29028;43.234;27.896;2022-08-19T04:52:03;99645.50;;;24.88;75.42
43430;BME280;29028;43.234;27.896;2022-08-19T04:52:24;99641.03;;;24.92;75.45
43430;BME280;29028;43.234;27.896;2022-08-19T04:52:45;99646.00;;;24.90;75.56
43430;BME280;29028;43.234;27.896;2022-08-19T04:53:07;99646.78;;;24.96;75.61
43430;BME280;29028;43.234;27.896;2022-08-19T04:53:29;99646.72;;;25.01;75.55
43430;BME280;29028;43.234;27.896;2022-08-19T04:53:51;99641.19;;;25.01;75.40
43430;BME280;29028;43.234;27.896;2022-08-19T04:54:12;99640.06;;;25.02;75.50
43430;BME280;29028;43.234;27.896;2022-08-19T04:54:34;99640.06;;;25.02;75.43
43430;BME280;29028;43.234;27.896;2022-08-19T04:54:55;99641.13;;;25.06;75.27
43430;BME280;29028;43.234;27.896;2022-08-19T04:55:16;99640.88;;;25.02;75.40
43430;BME280;29028;43.234;27.896;2022-08-19T04:55:39;99637.09;;;24.98;74.96
43430;BME280;29028;43.234;27.896;2022-08-19T04:56:05;99643.72;;;24.97;75.50
43430;BME280;29028;43.234;27.896;2022-08-19T04:56:28;99643.94;;;25.01;75.87
43430;BME280;29028;43.234;27.896;2022-08-19T04:56:49;99646.09;;;25.04;75.60
43430;BME280;29028;43.234;27.896;2022-08-19T04:57:10;99646.63;;;25.06;75.34
43430;BME280;29028;43.234;27.896;2022-08-19T04:57:31;99649.53;;;25.14;75.86
43430;BME280;29028;43.234;27.896;2022-08-19T04:57:53;99647.81;;;25.18;75.52
43430;BME280;29028;43.234;27.896;2022-08-19T04:58:13;99637.84;;;25.22;75.08
43430;BME280;29028;43.234;27.896;2022-08-19T04:58:35;99656.44;;;25.35;75.50
43430;BME280;29028;43.234;27.896;2022-08-19T04:58:57;99645.22;;;25.27;74.35
43430;BME280;29028;43.234;27.896;2022-08-19T04:59:18;99640.75;;;25.31;74.62
43430;BME280;29028;43.234;27.896;2022-08-19T04:59:40;99648.75;;;25.32;73.91
43430;BME280;29028;43.234;27.896;2022-08-19T05:00:01;99647.84;;;25.37;74.80
43430;BME280;29028;43.234;27.896;2022-08-19T05:00:23;99648.16;;;25.35;73.88
43430;BME280;29028;43.234;27.896;2022-08-19T05:00:44;99651.22;;;25.34;73.83
43430;BME280;29028;43.234;27.896;2022-08-19T05:01:06;99649.88;;;25.31;73.81
43430;BME280;29028;43.234;27.896;2022-08-19T05:01:27;99639.97;;;25.30;73.92
43430;BME280;29028;43.234;27.896;2022-08-19T05:01:49;99644.34;;;25.31;73.33
43430;BME280;29028;43.234;27.896;2022-08-19T05:02:10;99635.03;;;25.27;73.57
43430;BME280;29028;43.234;27.896;2022-08-19T05:02:31;99645.56;;;25.25;73.80
43430;BME280;29028;43.234;27.896;2022-08-19T05:02:54;99649.94;;;25.26;74.25
43430;BME280;29028;43.234;27.896;2022-08-19T05:03:15;99645.31;;;25.22;73.97
43430;BME280;29028;43.234;27.896;2022-08-19T05:03:37;99642.84;;;25.20;74.00
43430;BME280;29028;43.234;27.896;2022-08-19T05:03:59;99643.41;;;25.17;74.16
43430;BME280;29028;43.234;27.896;2022-08-19T05:04:21;99645.59;;;25.20;74.07
43430;BME280;29028;43.234;27.896;2022-08-19T05:04:42;99651.91;;;25.21;74.04
43430;BME280;29028;43.234;27.896;2022-08-19T05:05:04;99647.38;;;25.11;74.08
43430;BME280;29028;43.234;27.896;2022-08-19T05:05:26;99644.53;;;25.16;74.37
43430;BME280;29028;43.234;27.896;2022-08-19T05:05:48;99646.47;;;25.16;74.16
43430;BME280;29028;43.234;27.896;2022-08-19T05:06:12;99634.66;;;25.15;73.67
43430;BME280;29028;43.234;27.896;2022-08-19T05:06:34;99641.09;;;25.24;74.27
43430;BME280;29028;43.234;27.896;2022-08-19T05:06:55;99648.31;;;25.25;74.48
43430;BME280;29028;43.234;27.896;2022-08-19T05:07:16;99639.03;;;25.16;74.22
43430;BME280;29028;43.234;27.896;2022-08-19T05:07:38;99645.59;;;25.20;74.69
43430;BME280;29028;43.234;27.896;2022-08-19T05:08:01;99646.09;;;25.22;74.36
43430;BME280;29028;43.234;27.896;2022-08-19T05:08:22;99644.44;;;25.26;74.69
43430;BME280;29028;43.234;27.896;2022-08-19T05:08:43;99646.06;;;25.27;74.40
43430;BME280;29028;43.234;27.896;2022-08-19T05:09:05;99642.00;;;25.20;74.39
43430;BME280;29028;43.234;27.896;2022-08-19T05:09:27;99651.09;;;25.20;73.91
43430;BME280;29028;43.234;27.896;2022-08-19T05:09:47;99643.59;;;25.26;73.87
43430;BME280;29028;43.234;27.896;2022-08-19T05:10:09;99642.41;;;25.32;73.70
43430;BME280;29028;43.234;27.896;2022-08-19T05:10:34;99648.66;;;25.37;73.77
43430;BME280;29028;43.234;27.896;2022-08-19T05:10:55;99645.00;;;25.42;73.83
43430;BME280;29028;43.234;27.896;2022-08-19T05:11:19;99647.97;;;25.45;73.47
43430;BME280;29028;43.234;27.896;2022-08-19T05:11:43;99639.78;;;25.40;73.11
43430;BME280;29028;43.234;27.896;2022-08-19T05:12:04;99643.06;;;25.42;73.27
43430;BME280;29028;43.234;27.896;2022-08-19T05:12:26;99641.66;;;25.45;73.08
43430;BME280;29028;43.234;27.896;2022-08-19T05:12:49;99638.22;;;25.34;73.30
43430;BME280;29028;43.234;27.896;2022-08-19T05:13:09;99642.31;;;25.37;73.05
43430;BME280;29028;43.234;27.896;2022-08-19T05:13:31;99634.28;;;25.40;73.30
43430;BME280;29028;43.234;27.896;2022-08-19T05:13:53;99647.97;;;25.45;73.03
43430;BME280;29028;43.234;27.896;2022-08-19T05:14:15;99641.78;;;25.53;73.17
43430;BME280;29028;43.234;27.896;2022-08-19T05:14:36;99635.16;;;25.54;72.82
43430;BME280;29028;43.234;27.896;2022-08-19T05:14:57;99641.25;;;25.51;73.08
43430;BME280;29028;43.234;27.896;2022-08-19T05:15:18;99642.09;;;25.52;72.50
43430;BME280;29028;43.234;27.896;2022-08-19T05:15:40;99643.00;;;25.47;72.84
43430;BME280;29028;43.234;27.896;2022-08-19T05:16:02;99644.25;;;25.55;72.28
43430;BME280;29028;43.234;27.896;2022-08-19T05:16:24;99650.88;;;25.54;72.71
43430;BME280;29028;43.234;27.896;2022-08-19T05:16:45;99645.06;;;25.55;72.50
43430;BME280;29028;43.234;27.896;2022-08-19T05:17:07;99641.41;;;25.60;72.74
43430;BME280;29028;43.234;27.896;2022-08-19T05:17:28;99649.81;;;25.68;72.30
43430;BME280;29028;43.234;27.896;2022-08-19T05:17:49;99643.97;;;25.70;71.84
43430;BME280;29028;43.234;27.896;2022-08-19T05:18:29;99652.19;;;25.75;71.85
43430;BME280;29028;43.234;27.896;2022-08-19T05:19:09;99638.19;;;25.71;71.44
43430;BME280;29028;43.234;27.896;2022-08-19T05:19:48;99644.94;;;25.79;71.41
43430;BME280;29028;43.234;27.896;2022-08-19T05:20:27;99646.69;;;25.88;71.35
43430;BME280;29028;43.234;27.896;2022-08-19T05:21:07;99625.94;;;25.77;70.86
43430;BME280;29028;43.234;27.896;2022-08-19T05:21:47;99644.09;;;25.97;71.19
43430;BME280;29028;43.234;27.896;2022-08-19T05:22:26;99643.59;;;25.95;71.00
43430;BME280;29028;43.234;27.896;2022-08-19T05:22:55;99643.72;;;26.03;70.83
43430;BME280;29028;43.234;27.896;2022-08-19T05:23:16;99636.84;;;26.01;70.53
43430;BME280;29028;43.234;27.896;2022-08-19T05:23:37;99646.97;;;26.05;70.14
43430;BME280;29028;43.234;27.896;2022-08-19T05:23:58;99650.56;;;26.06;70.38
43430;BME280;29028;43.234;27.896;2022-08-19T05:24:21;99636.84;;;26.01;70.30
43430;BME280;29028;43.234;27.896;2022-08-19T05:24:42;99638.69;;;26.05;70.33
43430;BME280;29028;43.234;27.896;2022-08-19T05:25:05;99640.44;;;26.01;70.17
43430;BME280;29028;43.234;27.896;2022-08-19T05:25:27;99643.72;;;26.03;70.45
43430;BME280;29028;43.234;27.896;2022-08-19T05:25:49;99644.28;;;26.00;70.35
43430;BME280;29028;43.234;27.896;2022-08-19T05:26:11;99645.34;;;26.04;70.45
43430;BME280;29028;43.234;27.896;2022-08-19T05:26:32;99643.72;;;26.03;70.07
43430;BME280;29028;43.234;27.896;2022-08-19T05:26:53;99636.34;;;25.99;69.73
43430;BME280;29028;43.234;27.896;2022-08-19T05:27:17;99642.06;;;26.02;69.39
43430;BME280;29028;43.234;27.896;2022-08-19T05:27:39;99639.81;;;26.04;67.46
43430;BME280;29028;43.234;27.896;2022-08-19T05:28:00;99639.81;;;26.04;67.50
43430;BME280;29028;43.234;27.896;2022-08-19T05:28:20;99644.53;;;26.04;67.73
43430;BME280;29028;43.234;27.896;2022-08-19T05:28:42;99630.41;;;26.05;67.53
43430;BME280;29028;43.234;27.896;2022-08-19T05:29:03;99645.75;;;26.11;68.77
43430;BME280;29028;43.234;27.896;2022-08-19T05:29:26;99643.22;;;26.15;67.74
43430;BME280;29028;43.234;27.896;2022-08-19T05:29:47;99638.72;;;26.19;68.05
43430;BME280;29028;43.234;27.896;2022-08-19T05:30:11;99637.81;;;26.23;68.12
43430;BME280;29028;43.234;27.896;2022-08-19T05:30:32;99631.56;;;26.18;68.45
43430;BME280;29028;43.234;27.896;2022-08-19T05:30:54;99643.72;;;26.17;67.93
43430;BME280;29028;43.234;27.896;2022-08-19T05:31:15;99636.56;;;26.16;68.90
43430;BME280;29028;43.234;27.896;2022-08-19T05:31:37;99645.16;;;26.14;68.99
43430;BME280;29028;43.234;27.896;2022-08-19T05:31:58;99640.66;;;26.18;69.23
43430;BME280;29028;43.234;27.896;2022-08-19T05:32:19;99642.91;;;26.16;68.87
43430;BME280;29028;43.234;27.896;2022-08-19T05:32:42;99625.81;;;26.01;69.33
43430;BME280;29028;43.234;27.896;2022-08-19T05:33:04;99634.09;;;26.01;69.51
43430;BME280;29028;43.234;27.896;2022-08-19T05:33:25;99640.94;;;26.03;69.25
43430;BME280;29028;43.234;27.896;2022-08-19T05:33:47;99634.00;;;26.06;69.34
43430;BME280;29028;43.234;27.896;2022-08-19T05:34:09;99641.88;;;26.12;68.94
43430;BME280;29028;43.234;27.896;2022-08-19T05:34:31;99635.75;;;26.15;69.12
43430;BME280;29028;43.234;27.896;2022-08-19T05:34:53;99633.41;;;26.22;69.11
43430;BME280;29028;43.234;27.896;2022-08-19T05:35:14;99634.72;;;26.25;68.44
43430;BME280;29028;43.234;27.896;2022-08-19T05:35:36;99639.66;;;26.28;68.21
43430;BME280;29028;43.234;27.896;2022-08-19T05:35:58;99634.53;;;26.35;68.35
43430;BME280;29028;43.234;27.896;2022-08-19T05:36:18;99638.63;;;26.37;67.73
43430;BME280;29028;43.234;27.896;2022-08-19T05:36:41;99620.44;;;26.36;67.74
43430;BME280;29028;43.234;27.896;2022-08-19T05:37:04;99624.31;;;26.35;67.61
43430;BME280;29028;43.234;27.896;2022-08-19T05:37:28;99630.44;;;26.32;68.14
43430;BME280;29028;43.234;27.896;2022-08-19T05:37:49;99635.75;;;26.29;68.68
43430;BME280;29028;43.234;27.896;2022-08-19T05:38:10;99628.22;;;26.34;68.11
43430;BME280;29028;43.234;27.896;2022-08-19T05:38:31;99633.19;;;26.32;68.06
43430;BME280;29028;43.234;27.896;2022-08-19T05:38:53;99630.34;;;26.37;68.51
43430;BME280;29028;43.234;27.896;2022-08-19T05:39:16;99627.59;;;26.37;68.15
43430;BME280;29028;43.234;27.896;2022-08-19T05:39:37;99635.47;;;26.44;67.71
43430;BME280;29028;43.234;27.896;2022-08-19T05:39:58;99627.47;;;26.42;67.70
43430;BME280;29028;43.234;27.896;2022-08-19T05:40:20;99632.72;;;26.44;67.43
43430;BME280;29028;43.234;27.896;2022-08-19T05:40:41;99631.06;;;26.43;67.61
43430;BME280;29028;43.234;27.896;2022-08-19T05:41:07;99623.78;;;26.47;67.66
43430;BME280;29028;43.234;27.896;2022-08-19T05:41:28;99624.63;;;26.47;67.68
43430;BME280;29028;43.234;27.896;2022-08-19T05:41:53;99623.38;;;26.53;67.25
43430;BME280;29028;43.234;27.896;2022-08-19T05:42:17;99631.19;;;26.51;67.44
43430;BME280;29028;43.234;27.896;2022-08-19T05:42:40;99632.41;;;26.45;67.58
43430;BME280;29028;43.234;27.896;2022-08-19T05:43:01;99636.06;;;26.41;67.94
43430;BME280;29028;43.234;27.896;2022-08-19T05:43:22;99637.41;;;26.43;68.23
43430;BME280;29028;43.234;27.896;2022-08-19T05:43:43;99629.31;;;26.47;68.17
43430;BME280;29028;43.234;27.896;2022-08-19T05:44:05;99627.59;;;26.51;67.71
43430;BME280;29028;43.234;27.896;2022-08-19T05:44:30;99624.63;;;26.47;67.59
43430;BME280;29028;43.234;27.896;2022-08-19T05:44:51;99612.16;;;26.50;67.59
43430;BME280;29028;43.234;27.896;2022-08-19T05:45:13;99622.06;;;26.37;67.34
43430;BME280;29028;43.234;27.896;2022-08-19T05:45:38;99626.25;;;26.35;67.89
43430;BME280;29028;43.234;27.896;2022-08-19T05:46:00;99622.59;;;26.39;67.72
43430;BME280;29028;43.234;27.896;2022-08-19T05:46:20;99630.34;;;26.37;68.06
43430;BME280;29028;43.234;27.896;2022-08-19T05:46:43;99629.84;;;26.35;67.81
43430;BME280;29028;43.234;27.896;2022-08-19T05:47:07;99620.53;;;26.45;67.94
43430;BME280;29028;43.234;27.896;2022-08-19T05:47:28;99626.16;;;26.53;67.38
43430;BME280;29028;43.234;27.896;2022-08-19T05:47:49;99623.00;;;26.46;67.68
43430;BME280;29028;43.234;27.896;2022-08-19T05:48:12;99621.47;;;26.54;67.54
43430;BME280;29028;43.234;27.896;2022-08-19T05:48:34;99628.66;;;26.55;67.52
43430;BME280;29028;43.234;27.896;2022-08-19T05:48:56;99624.44;;;26.57;67.39
43430;BME280;29028;43.234;27.896;2022-08-19T05:49:17;99627.41;;;26.61;67.22
43430;BME280;29028;43.234;27.896;2022-08-19T05:49:38;99625.97;;;26.63;67.38
43430;BME280;29028;43.234;27.896;2022-08-19T05:50:00;99628.63;;;26.68;67.26
43430;BME280;29028;43.234;27.896;2022-08-19T05:50:22;99627.41;;;26.74;66.95
43430;BME280;29028;43.234;27.896;2022-08-19T05:50:43;99627.09;;;26.76;67.12
43430;BME280;29028;43.234;27.896;2022-08-19T05:51:06;99624.16;;;26.59;66.95
43430;BME280;29028;43.234;27.896;2022-08-19T05:51:28;99625.03;;;26.54;67.08
43430;BME280;29028;43.234;27.896;2022-08-19T05:51:49;99624.03;;;26.50;67.60
43430;BME280;29028;43.234;27.896;2022-08-19T05:52:12;99622.34;;;26.49;67.75
43430;BME280;29028;43.234;27.896;2022-08-19T05:52:33;99627.09;;;26.49;67.57
43430;BME280;29028;43.234;27.896;2022-08-19T05:52:58;99626.97;;;26.54;67.19
43430;BME280;29028;43.234;27.896;2022-08-19T05:53:19;99624.84;;;26.64;67.54
43430;BME280;29028;43.234;27.896;2022-08-19T05:53:40;99620.34;;;26.68;67.11
43430;BME280;29028;43.234;27.896;2022-08-19T05:54:00;99620.84;;;26.57;66.81
43430;BME280;29028;43.234;27.896;2022-08-19T05:54:23;99620.75;;;26.62;67.04
43430;BME280;29028;43.234;27.896;2022-08-19T05:54:44;99624.53;;;26.66;66.79
43430;BME280;29028;43.234;27.896;2022-08-19T05:55:08;99628.25;;;26.61;67.15
43430;BME280;29028;43.234;27.896;2022-08-19T05:55:29;99619.59;;;26.49;67.17
43430;BME280;29028;43.234;27.896;2022-08-19T05:55:51;99622.59;;;26.53;67.85
43430;BME280;29028;43.234;27.896;2022-08-19T05:56:15;99616.47;;;26.56;67.44
43430;BME280;29028;43.234;27.896;2022-08-19T05:56:36;99616.38;;;26.61;67.74
43430;BME280;29028;43.234;27.896;2022-08-19T05:56:58;99630.56;;;26.68;67.56
43430;BME280;29028;43.234;27.896;2022-08-19T05:57:22;99623.81;;;26.74;67.24
43430;BME280;29028;43.234;27.896;2022-08-19T05:57:43;99621.97;;;26.69;66.96
43430;BME280;29028;43.234;27.896;2022-08-19T05:58:04;99609.78;;;26.70;67.09
43430;BME280;29028;43.234;27.896;2022-08-19T05:58:27;99620.66;;;26.67;67.31
43430;BME280;29028;43.234;27.896;2022-08-19T05:58:49;99619.41;;;26.73;67.29
43430;BME280;29028;43.234;27.896;2022-08-19T05:59:11;99618.00;;;26.62;66.85
43430;BME280;29028;43.234;27.896;2022-08-19T05:59:31;99620.94;;;26.65;67.08
43430;BME280;29028;43.234;27.896;2022-08-19T05:59:53;99614.19;;;26.58;66.91
43430;BME280;29028;43.234;27.896;2022-08-19T06:00:15;99605.41;;;26.56;67.19
43430;BME280;29028;43.234;27.896;2022-08-19T06:00:37;99610.53;;;26.62;66.98